Flight Track Log - Related Links

Times and Time Zones

All times are in EDT time to prevent confusion due to time zone crossing. See the AAL1459 flight status page for this flight to view local times or setup timezone preferences in your user account.

Time Position Orientation Groundspeed Altitude Reporting Facility
EDT Latitude Longitude Course Direction KTS MPH feet Rate Location/Type
Thu 02:22:52 PM 42.3667 -70.9833 304° West 168 193 600  Level KA90
Thu 02:24:07 PM 42.3833 -70.8667 79° East 254 292 3,100 2,047 Climbing KA90
Thu 02:25:00 PM 42.5416 -70.8041 340° North  Level FlightAware Approximate
Thu 02:25:01 PM 42.4167 -70.8000 56° Northeast 297 342 5,000  Level KA90
Thu 02:26:00 PM 42.6126 -70.8970 308° West  Level FlightAware Approximate
Thu 02:26:51 PM 42.5108 -70.9022 321° Northwest 295 339 9,400  Level Boston Center
Thu 02:27:00 PM 42.6667 -71.0134 300° West  Level FlightAware Approximate
Thu 02:27:51 PM 42.5561 -71.0111 299° West 295 339 11,600  Level Boston Center
Thu 02:28:00 PM 42.7168 -71.1336 304° West  Level FlightAware Approximate
Thu 02:28:51 PM 42.5947 -71.1144 297° West 328 377 13,900  Level Boston Center
Thu 02:29:51 PM 42.6400 -71.2464 295° West 399 459 16,600 2,400 Climbing Boston Center
Thu 02:30:51 PM 42.6744 -71.3614 292° West 373 429 18,700 2,050 Climbing Boston Center
Thu 02:31:51 PM 42.7217 -71.4961 296° West 379 436 20,700 1,850 Climbing Boston Center
Thu 02:32:51 PM 42.7394 -71.6428 279° West 384 442 22,400 1,750 Climbing Boston Center
Thu 02:33:51 PM 42.7592 -71.8011 280° West 406 467 24,200 1,800 Climbing Boston Center
Thu 02:34:51 PM 42.7767 -71.9619 278° West 421 484 26,000 1,650 Climbing Boston Center
Thu 02:35:51 PM 42.7939 -72.1261 278° West 435 501 27,500 1,450 Climbing Boston Center
Thu 02:36:51 PM 42.8172 -72.2928 281° West 447 514 28,900 1,500 Climbing Boston Center
Thu 02:37:51 PM 42.8339 -72.4656 278° West 458 527 30,500 1,600 Climbing Boston Center
Thu 02:38:51 PM 42.8525 -72.6497 278° West 458 527 32,100 1,750 Climbing Boston Center
Thu 02:39:51 PM 42.8686 -72.8197 277° West 458 527 34,000 1,500 Climbing Boston Center
Thu 02:41:03 PM 42.8867 -73.0039 278° West 458 527 35,400 1,227 Climbing Boston Center
Thu 02:42:03 PM 42.9044 -73.1714 278° West 452 520 36,700 1,000 Climbing Boston Center
Thu 02:43:03 PM 42.9200 -73.3331 278° West 442 509 37,400 591 Climbing Boston Center
Thu 02:44:15 PM 42.9333 -73.4894 277° West 437 503 38,000 273 Climbing Boston Center
Thu 02:45:15 PM 42.9500 -73.6911 277° West 437 503 38,000 -45 Level Boston Center
Thu 02:46:27 PM 42.9669 -73.8558 278° West 442 509 37,900  Descending Boston Center
Thu 02:47:27 PM 42.9850 -74.0550 277° West 447 514 38,000 45 Climbing Boston Center
Thu 02:48:39 PM 42.9992 -74.2200 277° West 447 514 38,000 -45 Level Boston Center
Thu 02:49:39 PM 43.0167 -74.4222 277° West 447 514 37,900  Descending Boston Center
Thu 02:50:39 PM 43.0303 -74.5875 276° West 447 514 38,000 50 Climbing Boston Center
Thu 02:51:39 PM 43.0458 -74.7556 277° West 447 514 38,000 -50 Level Boston Center
Thu 02:52:39 PM 43.0611 -74.9239 277° West 447 514 37,900 -50 Descending Boston Center
Thu 02:53:39 PM 43.0756 -75.1092 276° West 447 514 37,900  Level Boston Center
Thu 02:54:39 PM 43.0903 -75.2778 277° West 447 514 37,900  Level Boston Center
Thu 02:55:51 PM 43.1028 -75.4461 276° West 447 514 37,900 45 Level Boston Center
Thu 02:56:51 PM 43.1181 -75.6489 276° West 447 514 38,000 50 Climbing Boston Center
Thu 02:57:51 PM 43.1319 -75.8147 277° West 447 514 38,000  Level Boston Center
Thu 02:59:22 PM 43.1333 -76.0167 271° West 450 518 38,000  Level Toronto Center
Thu 02:59:58 PM 43.1572 -76.1572 283° West 446 513 38,000 -63 Level Cleveland Center
Thu 03:00:58 PM 43.1614 -76.3278 272° West 446 513 37,900 -50 Descending Cleveland Center
Thu 03:01:58 PM 43.1614 -76.4958 270° West 441 507 37,900 50 Level Cleveland Center
Thu 03:02:58 PM 43.1586 -76.6639 269° West 441 507 38,000 50 Climbing Cleveland Center
Thu 03:03:58 PM 43.1583 -76.8433 270° West 435 501 38,000  Level Cleveland Center
Thu 03:04:58 PM 43.1575 -77.0114 270° West 441 507 38,000  Level Cleveland Center
Thu 03:05:58 PM 43.1583 -77.1764 270° West 441 507 38,000  Level Cleveland Center
Thu 03:06:58 PM 43.1569 -77.3444 269° West 441 507 38,000  Level Cleveland Center
Thu 03:07:58 PM 43.1531 -77.5097 268° West 441 507 38,000  Level Cleveland Center
Thu 03:08:58 PM 43.1531 -77.6747 270° West 441 507 38,000  Level Cleveland Center
Thu 03:09:58 PM 43.1508 -77.8342 269° West 441 507 38,000  Level Cleveland Center
Thu 03:10:58 PM 43.1483 -77.9967 269° West 441 507 38,000  Level Cleveland Center
Thu 03:11:58 PM 43.1456 -78.1561 269° West 436 502 38,000  Level Cleveland Center
Thu 03:12:58 PM 43.1425 -78.3128 269° West 425 489 38,000  Level Cleveland Center
Thu 03:13:58 PM 43.1411 -78.4606 269° West 425 489 38,000  Level Cleveland Center
Thu 03:14:58 PM 43.1356 -78.6231 267° West 425 489 38,000  Level Cleveland Center
Thu 03:15:58 PM 43.1297 -78.7853 267° West 425 489 38,000  Level Cleveland Center
Thu 03:16:58 PM 43.1261 -78.9506 268° West 425 489 38,000  Level Cleveland Center
Thu 03:17:22 PM 43.1167 -79.0000 255° West 430 495 38,000  Level Toronto Center
Thu 03:18:22 PM 43.1167 -79.1833 270° West 430 495 38,000  Level Toronto Center
Thu 03:19:22 PM 43.1000 -79.3333 261° West 430 495 38,000  Level Toronto Center
Thu 03:20:22 PM 43.1000 -79.5000 270° West 430 495 38,000  Level Toronto Center
Thu 03:21:22 PM 43.1000 -79.6500 270° West 420 483 38,000  Level Toronto Center
Thu 03:22:22 PM 43.0833 -79.8167 262° West 420 483 38,000  Level Toronto Center
Thu 03:23:22 PM 43.0833 -79.9833 270° West 410 472 38,000  Level Toronto Center
Thu 03:24:22 PM 43.0667 -80.1333 261° West 410 472 38,000  Level Toronto Center
Thu 03:25:22 PM 43.0667 -80.2667 270° West 410 472 38,000  Level Toronto Center
Thu 03:26:22 PM 43.0667 -80.4333 270° West 410 472 38,000  Level Toronto Center
Thu 03:27:22 PM 43.0500 -80.5833 261° West 410 472 38,000  Level Toronto Center
Thu 03:28:22 PM 43.0500 -80.7500 270° West 410 472 38,000  Level Toronto Center
Thu 03:29:22 PM 43.0333 -80.9167 262° West 410 472 38,000  Level Toronto Center
Thu 03:30:22 PM 43.0167 -81.0500 260° West 410 472 38,000  Level Toronto Center
Thu 03:32:10 PM 43.0328 -81.3528 274° West 450 518 38,000  Level Cleveland Center
Thu 03:33:10 PM 43.0297 -81.5061 268° West 431 496 38,000  Level Cleveland Center
Thu 03:34:10 PM 43.0283 -81.6653 269° West 419 482 38,000  Level Cleveland Center
Thu 03:35:10 PM 43.0225 -81.8214 267° West 414 476 38,000  Level Cleveland Center
Thu 03:36:22 PM 43.0000 -82.0000 260° West 410 472 38,000  Level Toronto Center
Thu 03:37:22 PM 43.0000 -82.1667 270° West 410 472 38,000  Level Toronto Center
Thu 03:38:22 PM 43.0000 -82.3000 270° West 420 483 38,000  Level Toronto Center
Thu 03:39:22 PM 43.0000 -82.4833 270° West 410 472 38,000 -400 Level Toronto Center
Thu 03:40:22 PM 43.0000 -82.6167 270° West 410 472 37,200 -833 Descending Toronto Center
Thu 03:41:10 PM 43.0006 -82.7519 270° West 407 468 36,500 -889 Descending Cleveland Center
Thu 03:42:10 PM 42.9953 -82.9053 267° West 402 463 35,600 -950 Descending Cleveland Center
Thu 03:43:10 PM 42.9861 -83.0553 265° West 402 463 34,600 -800 Descending Cleveland Center
Thu 03:44:10 PM 42.9742 -83.2081 264° West 402 463 34,000 -400 Descending Cleveland Center
Thu 03:45:10 PM 42.9622 -83.3636 264° West 407 468 33,800 -550 Descending Cleveland Center
Thu 03:46:10 PM 42.9522 -83.5136 265° West 407 468 32,900 -900 Descending Cleveland Center
Thu 03:47:10 PM 42.9400 -83.6689 264° West 407 468 32,000 -950 Descending Cleveland Center
Thu 03:48:10 PM 42.9272 -83.8300 264° West 412 474 31,000 -1,000 Descending Cleveland Center
Thu 03:49:10 PM 42.9144 -83.9853 264° West 417 480 30,000 -1,000 Descending Cleveland Center
Thu 03:50:10 PM 42.9036 -84.1378 265° West 417 480 29,000 -1,000 Descending Cleveland Center
Thu 03:51:10 PM 42.8925 -84.2875 264° West 412 474 28,000 -650 Descending Cleveland Center
Thu 03:52:10 PM 42.8817 -84.4311 264° West 405 466 27,700 -468 Descending Cleveland Center
Thu 03:52:27 PM 42.8781 -84.4603 260° West 391 450 27,400 -1,400 Descending Chicago Center
Thu 03:53:10 PM 42.8661 -84.5778 262° West 400 460 26,300 -449 Descending Cleveland Center
Thu 03:55:34 PM 42.8378 -84.9272 264° West 392 451 26,000 -87 Descending Chicago Center
Thu 03:56:36 PM 42.8250 -85.0769 263° West 397 457 26,000  Level Chicago Center
Thu 03:57:38 PM 42.8117 -85.2269 263° West 400 460 26,000  Level Chicago Center
Thu 03:58:40 PM 42.7978 -85.3783 263° West 401 461 26,000  Level Chicago Center
Thu 03:59:42 PM 42.7814 -85.5311 262° West 407 468 26,000 -484 Level Chicago Center
Thu 04:00:44 PM 42.7536 -85.6806 256° West 406 467 25,000 -1,113 Descending Chicago Center
Thu 04:01:46 PM 42.7269 -85.8281 256° West 402 463 23,700 -1,403 Descending Chicago Center
Thu 04:02:48 PM 42.6953 -86.0008 256° West 391 450 22,100 -1,403 Descending Chicago Center
Thu 04:03:50 PM 42.6703 -86.1431 257° West 386 444 20,800 -1,016 Descending Chicago Center
Thu 04:04:52 PM 42.6442 -86.2819 256° West 379 436 20,000 -576 Descending Chicago Center
Thu 04:05:55 PM 42.6175 -86.4164 255° West 370 426 19,600 -1,056 Descending Chicago Center
Thu 04:06:57 PM 42.5917 -86.5542 256° West 376 433 17,800 -1,742 Descending Chicago Center
Thu 04:07:59 PM 42.5667 -86.6858 256° West 364 419 16,000 -1,742 Descending Chicago Center
Thu 04:09:01 PM 42.5381 -86.8133 253° West 358 412 14,200 -1,935 Descending Chicago Center
Thu 04:10:03 PM 42.4981 -86.9603 250° West 351 404 12,000 -1,597 Descending Chicago Center
Thu 04:11:05 PM 42.4647 -87.0744 248° West 327 376 10,900 -968 Descending Chicago Center
Thu 04:12:07 PM 42.4361 -87.1756 249° West 296 341 10,000 -919 Descending Chicago Center
Thu 04:13:09 PM 42.4106 -87.2714 250° West 278 320 9,000 -677 Descending Chicago Center
Thu 04:14:11 PM 42.3847 -87.3661 250° West 270 311 8,600 -919 Descending Chicago Center
Thu 04:15:13 PM 42.3592 -87.4675 251° West 265 305 7,100 -774 Descending Chicago Center
Thu 04:16:15 PM 42.3108 -87.5486 231° Southwest 259 298 7,000 -48 Descending Chicago Center
Thu 04:17:17 PM 42.2600 -87.6050 219° Southwest 239 275 7,000 -384 Level Chicago Center
Thu 04:18:20 PM 42.2150 -87.6553 220° Southwest 215 247 6,200 -912 Descending Chicago Center
Thu 04:19:22 PM 42.1689 -87.7058 219° Southwest 214 246 5,100 -1,065 Descending Chicago Center

Login

Don't have an account? Register now (free) for customized features, flight alerts, and more!